This is the latest recevied weather packets stored in our database for station/object IV3ONZ. If no packets are shown the sender has not sent any weather packets the latest 10 day(s).
| Time | Temp. | Humidity | Pressure | Rain* | Wind** | Luminosity | Snow |
|---|---|---|---|---|---|---|---|
| 1777589403 | 12.22° C | 33% | 1030.2 hPa | 0 mm | - | 0 W/m² | - |
| 1777588937 | 12.22° C | 33% | 1030.4 hPa | 0 mm | - | 0 W/m² | - |
| 1777587903 | 12.78° C | 33% | 1030.1 hPa | 0 mm | - | 0 W/m² | - |
| 1777586404 | 12.22° C | 36% | 1030.1 hPa | 0 mm | - | 0 W/m² | - |
| 1777584904 | 11.11° C | 41% | 1029.7 hPa | 0 mm | - | 0 W/m² | - |
| 1777581904 | 12.22° C | 37% | 1029.2 hPa | 0 mm | - | 0 W/m² | - |
| 1777579204 | 12.22° C | 37% | 1028.6 hPa | 0 mm | - | 0 W/m² | - |
| 1777578304 | 12.78° C | 39% | 1028.4 hPa | 0 mm | - | 0 W/m² | - |
| 1777578134 | 13.33° C | 37% | 1028.4 hPa | 0 mm | - | 0 W/m² | - |
| 1777577704 | 13.33° C | 36% | 1028 hPa | 0 mm | - | 0 W/m² | - |
| 1777577104 | 13.89° C | 34% | 1028 hPa | 0 mm | - | 0 W/m² | - |
| 1777575003 | 14.44° C | 32% | 1027.2 hPa | 0 mm | - | 0 W/m² | - |
| 1777574534 | 14.44° C | 33% | 1027.2 hPa | 0 mm | - | 0 W/m² | - |
| 1777571836 | 15.56° C | 31% | 1026.6 hPa | 0 mm | - | 12 W/m² | - |
| 1777571104 | 16.11° C | 30% | 1026.6 hPa | 0 mm | - | 22 W/m² | - |
| 1777570633 | 16.11° C | 30% | 1026.4 hPa | 0 mm | - | 29 W/m² | - |
| 1777569904 | 16.67° C | 29% | 1026.4 hPa | 0 mm | - | 44 W/m² | - |
| 1777569304 | 16.67° C | 28% | 1026.5 hPa | 0 mm | - | 59 W/m² | - |
| 1777568404 | 17.22° C | 28% | 1026.2 hPa | 0 mm | - | 85 W/m² | - |
| 1777566904 | 17.78° C | 28% | 1026.3 hPa | 0 mm | - | 143 W/m² | - |
| 1777563904 | 18.33° C | 28% | 1025.7 hPa | 0 mm | - | 291 W/m² | - |
| 1777562104 | 18.33° C | 28% | 1025.8 hPa | 0 mm | - | 356 W/m² | - |
| 1777558204 | 18.89° C | 26% | 1026 hPa | 0 mm | - | 608 W/m² | - |
| 1777557304 | 18.33° C | 27% | 1026.2 hPa | 0 mm | - | 654 W/m² | - |
| 1777555804 | 18.89° C | 28% | 1026.2 hPa | 0 mm | - | 710 W/m² | - |
* Rain latest hour (hover to see other rain measurements)
** Current wind speed in m/s (hover to see current wind gust speed)